sensor_id;sensor_type;location;lat;lon;timestamp;P1;durP1;ratioP1;P2;durP2;ratioP2
14121;SDS011;7139;48.114;11.442;2022-08-01T00:00:39;2.73;;;2.53;;
14121;SDS011;7139;48.114;11.442;2022-08-01T00:03:06;3.70;;;2.93;;
14121;SDS011;7139;48.114;11.442;2022-08-01T00:05:33;2.60;;;2.40;;
14121;SDS011;7139;48.114;11.442;2022-08-01T00:08:01;2.90;;;2.70;;
14121;SDS011;7139;48.114;11.442;2022-08-01T00:10:27;3.10;;;2.90;;
14121;SDS011;7139;48.114;11.442;2022-08-01T00:12:54;3.10;;;2.60;;
14121;SDS011;7139;48.114;11.442;2022-08-01T00:15:21;2.73;;;2.30;;
14121;SDS011;7139;48.114;11.442;2022-08-01T00:17:47;2.63;;;2.43;;
14121;SDS011;7139;48.114;11.442;2022-08-01T00:20:14;2.83;;;2.63;;
14121;SDS011;7139;48.114;11.442;2022-08-01T00:22:41;2.60;;;2.40;;
14121;SDS011;7139;48.114;11.442;2022-08-01T00:25:09;2.63;;;2.43;;
14121;SDS011;7139;48.114;11.442;2022-08-01T00:27:36;2.50;;;2.27;;
14121;SDS011;7139;48.114;11.442;2022-08-01T00:30:03;2.90;;;2.60;;
14121;SDS011;7139;48.114;11.442;2022-08-01T00:32:31;2.80;;;2.60;;
14121;SDS011;7139;48.114;11.442;2022-08-01T00:34:58;2.60;;;2.40;;
14121;SDS011;7139;48.114;11.442;2022-08-01T00:37:25;4.13;;;2.60;;
14121;SDS011;7139;48.114;11.442;2022-08-01T00:39:52;3.67;;;2.33;;
14121;SDS011;7139;48.114;11.442;2022-08-01T00:42:20;3.33;;;2.50;;
14121;SDS011;7139;48.114;11.442;2022-08-01T00:44:47;2.73;;;2.30;;
14121;SDS011;7139;48.114;11.442;2022-08-01T00:47:14;2.60;;;2.40;;
14121;SDS011;7139;48.114;11.442;2022-08-01T00:49:40;2.70;;;2.50;;
14121;SDS011;7139;48.114;11.442;2022-08-01T00:52:07;2.80;;;2.60;;
14121;SDS011;7139;48.114;11.442;2022-08-01T00:54:35;2.50;;;2.30;;
14121;SDS011;7139;48.114;11.442;2022-08-01T00:57:02;4.07;;;2.50;;
14121;SDS011;7139;48.114;11.442;2022-08-01T00:59:30;3.10;;;2.73;;
14121;SDS011;7139;48.114;11.442;2022-08-01T01:01:58;3.27;;;2.47;;
14121;SDS011;7139;48.114;11.442;2022-08-01T01:04:24;3.30;;;2.33;;
14121;SDS011;7139;48.114;11.442;2022-08-01T01:06:53;2.77;;;2.57;;
14121;SDS011;7139;48.114;11.442;2022-08-01T01:09:29;4.67;;;2.50;;
14121;SDS011;7139;48.114;11.442;2022-08-01T01:12:03;2.43;;;2.23;;
14121;SDS011;7139;48.114;11.442;2022-08-01T01:14:57;2.67;;;2.47;;
14121;SDS011;7139;48.114;11.442;2022-08-01T01:17:32;3.13;;;2.57;;
14121;SDS011;7139;48.114;11.442;2022-08-01T01:20:03;3.43;;;2.60;;
14121;SDS011;7139;48.114;11.442;2022-08-01T01:22:42;3.30;;;2.70;;
14121;SDS011;7139;48.114;11.442;2022-08-01T01:25:26;3.90;;;2.70;;
14121;SDS011;7139;48.114;11.442;2022-08-01T01:28:08;3.37;;;2.77;;
14121;SDS011;7139;48.114;11.442;2022-08-01T01:30:40;3.10;;;2.47;;
14121;SDS011;7139;48.114;11.442;2022-08-01T01:33:10;2.97;;;2.70;;
14121;SDS011;7139;48.114;11.442;2022-08-01T01:35:48;2.90;;;2.67;;
14121;SDS011;7139;48.114;11.442;2022-08-01T01:38:20;5.37;;;2.70;;
14121;SDS011;7139;48.114;11.442;2022-08-01T01:40:49;2.60;;;2.40;;
14121;SDS011;7139;48.114;11.442;2022-08-01T01:43:17;2.70;;;2.50;;
14121;SDS011;7139;48.114;11.442;2022-08-01T01:45:47;2.50;;;2.30;;
14121;SDS011;7139;48.114;11.442;2022-08-01T01:48:15;2.70;;;2.50;;
14121;SDS011;7139;48.114;11.442;2022-08-01T01:50:45;3.87;;;2.60;;
14121;SDS011;7139;48.114;11.442;2022-08-01T01:53:13;2.50;;;2.30;;
14121;SDS011;7139;48.114;11.442;2022-08-01T01:55:44;2.80;;;2.60;;
14121;SDS011;7139;48.114;11.442;2022-08-01T01:58:14;2.87;;;2.60;;
14121;SDS011;7139;48.114;11.442;2022-08-01T02:00:42;3.13;;;2.83;;
14121;SDS011;7139;48.114;11.442;2022-08-01T02:03:12;2.90;;;2.40;;
14121;SDS011;7139;48.114;11.442;2022-08-01T02:05:39;4.33;;;2.83;;
14121;SDS011;7139;48.114;11.442;2022-08-01T02:08:08;2.70;;;2.50;;
14121;SDS011;7139;48.114;11.442;2022-08-01T02:10:37;4.03;;;2.80;;
14121;SDS011;7139;48.114;11.442;2022-08-01T02:13:05;3.40;;;2.57;;
14121;SDS011;7139;48.114;11.442;2022-08-01T02:15:34;5.93;;;2.60;;
14121;SDS011;7139;48.114;11.442;2022-08-01T02:18:03;2.80;;;2.60;;
14121;SDS011;7139;48.114;11.442;2022-08-01T02:20:34;2.70;;;2.50;;
14121;SDS011;7139;48.114;11.442;2022-08-01T02:23:05;3.13;;;2.83;;
14121;SDS011;7139;48.114;11.442;2022-08-01T02:25:38;4.70;;;3.00;;
14121;SDS011;7139;48.114;11.442;2022-08-01T02:28:09;2.80;;;2.60;;
14121;SDS011;7139;48.114;11.442;2022-08-01T02:30:41;2.90;;;2.70;;
14121;SDS011;7139;48.114;11.442;2022-08-01T02:33:12;3.60;;;2.60;;
14121;SDS011;7139;48.114;11.442;2022-08-01T02:35:45;3.10;;;2.80;;
14121;SDS011;7139;48.114;11.442;2022-08-01T02:38:16;2.73;;;2.30;;
14121;SDS011;7139;48.114;11.442;2022-08-01T02:40:47;3.67;;;2.60;;
14121;SDS011;7139;48.114;11.442;2022-08-01T02:43:17;2.60;;;2.40;;
14121;SDS011;7139;48.114;11.442;2022-08-01T02:46:00;2.67;;;2.43;;
14121;SDS011;7139;48.114;11.442;2022-08-01T02:48:28;2.80;;;2.60;;
14121;SDS011;7139;48.114;11.442;2022-08-01T02:50:59;2.60;;;2.40;;
14121;SDS011;7139;48.114;11.442;2022-08-01T02:53:28;3.10;;;2.40;;
14121;SDS011;7139;48.114;11.442;2022-08-01T02:56:02;2.67;;;2.40;;
14121;SDS011;7139;48.114;11.442;2022-08-01T02:58:30;3.00;;;2.70;;
14121;SDS011;7139;48.114;11.442;2022-08-01T03:00:59;2.50;;;2.30;;
14121;SDS011;7139;48.114;11.442;2022-08-01T03:03:27;2.80;;;2.60;;
14121;SDS011;7139;48.114;11.442;2022-08-01T03:05:55;2.77;;;2.57;;
14121;SDS011;7139;48.114;11.442;2022-08-01T03:08:25;4.07;;;2.80;;
14121;SDS011;7139;48.114;11.442;2022-08-01T03:10:53;3.10;;;2.73;;
14121;SDS011;7139;48.114;11.442;2022-08-01T03:13:21;3.10;;;2.83;;
14121;SDS011;7139;48.114;11.442;2022-08-01T03:15:49;2.80;;;2.60;;
14121;SDS011;7139;48.114;11.442;2022-08-01T03:18:17;3.53;;;2.73;;
14121;SDS011;7139;48.114;11.442;2022-08-01T03:20:45;3.00;;;2.80;;
14121;SDS011;7139;48.114;11.442;2022-08-01T03:23:12;3.40;;;2.60;;
14121;SDS011;7139;48.114;11.442;2022-08-01T03:25:41;4.57;;;2.70;;
14121;SDS011;7139;48.114;11.442;2022-08-01T03:28:12;3.40;;;3.10;;
14121;SDS011;7139;48.114;11.442;2022-08-01T03:30:39;4.00;;;2.67;;
14121;SDS011;7139;48.114;11.442;2022-08-01T03:33:08;3.47;;;3.17;;
14121;SDS011;7139;48.114;11.442;2022-08-01T03:35:37;3.03;;;2.83;;
14121;SDS011;7139;48.114;11.442;2022-08-01T03:38:12;2.83;;;2.40;;
14121;SDS011;7139;48.114;11.442;2022-08-01T03:40:45;3.03;;;2.63;;
14121;SDS011;7139;48.114;11.442;2022-08-01T03:43:17;3.00;;;2.70;;
14121;SDS011;7139;48.114;11.442;2022-08-01T03:45:48;3.20;;;2.30;;
14121;SDS011;7139;48.114;11.442;2022-08-01T03:48:18;2.80;;;2.60;;
14121;SDS011;7139;48.114;11.442;2022-08-01T03:50:50;3.03;;;2.77;;
14121;SDS011;7139;48.114;11.442;2022-08-01T03:53:18;4.43;;;2.87;;
14121;SDS011;7139;48.114;11.442;2022-08-01T03:55:49;5.07;;;2.93;;
14121;SDS011;7139;48.114;11.442;2022-08-01T03:58:18;3.43;;;2.67;;
14121;SDS011;7139;48.114;11.442;2022-08-01T04:00:46;3.07;;;2.77;;
14121;SDS011;7139;48.114;11.442;2022-08-01T04:03:14;3.00;;;2.80;;
14121;SDS011;7139;48.114;11.442;2022-08-01T04:05:41;2.97;;;2.70;;
14121;SDS011;7139;48.114;11.442;2022-08-01T04:08:08;3.20;;;2.90;;
14121;SDS011;7139;48.114;11.442;2022-08-01T04:10:36;2.90;;;2.70;;
14121;SDS011;7139;48.114;11.442;2022-08-01T04:13:04;4.20;;;3.10;;
14121;SDS011;7139;48.114;11.442;2022-08-01T04:15:31;3.20;;;2.73;;
14121;SDS011;7139;48.114;11.442;2022-08-01T04:17:58;3.33;;;2.90;;
14121;SDS011;7139;48.114;11.442;2022-08-01T04:20:25;3.00;;;2.80;;
14121;SDS011;7139;48.114;11.442;2022-08-01T04:22:51;3.07;;;2.63;;
14121;SDS011;7139;48.114;11.442;2022-08-01T04:25:19;2.93;;;2.70;;
14121;SDS011;7139;48.114;11.442;2022-08-01T04:27:51;2.70;;;2.50;;
14121;SDS011;7139;48.114;11.442;2022-08-01T04:30:20;4.17;;;2.80;;
14121;SDS011;7139;48.114;11.442;2022-08-01T04:32:51;3.30;;;3.00;;
14121;SDS011;7139;48.114;11.442;2022-08-01T04:35:20;3.10;;;2.90;;
14121;SDS011;7139;48.114;11.442;2022-08-01T04:37:48;4.67;;;3.20;;
14121;SDS011;7139;48.114;11.442;2022-08-01T04:40:16;3.30;;;3.00;;
14121;SDS011;7139;48.114;11.442;2022-08-01T04:42:46;3.20;;;3.00;;
14121;SDS011;7139;48.114;11.442;2022-08-01T04:45:14;3.47;;;2.80;;
14121;SDS011;7139;48.114;11.442;2022-08-01T04:47:43;3.47;;;2.83;;
14121;SDS011;7139;48.114;11.442;2022-08-01T04:50:12;3.40;;;3.10;;
14121;SDS011;7139;48.114;11.442;2022-08-01T04:52:39;4.10;;;2.80;;
14121;SDS011;7139;48.114;11.442;2022-08-01T04:55:07;4.20;;;2.73;;
14121;SDS011;7139;48.114;11.442;2022-08-01T04:57:36;3.10;;;2.80;;
14121;SDS011;7139;48.114;11.442;2022-08-01T05:00:05;3.20;;;2.73;;
14121;SDS011;7139;48.114;11.442;2022-08-01T05:02:33;3.40;;;3.00;;
14121;SDS011;7139;48.114;11.442;2022-08-01T05:05:01;3.57;;;2.90;;
14121;SDS011;7139;48.114;11.442;2022-08-01T05:07:28;5.90;;;2.80;;
14121;SDS011;7139;48.114;11.442;2022-08-01T05:09:55;3.17;;;2.87;;
14121;SDS011;7139;48.114;11.442;2022-08-01T05:12:21;3.20;;;2.90;;
14121;SDS011;7139;48.114;11.442;2022-08-01T05:14:48;4.17;;;3.10;;
14121;SDS011;7139;48.114;11.442;2022-08-01T05:17:15;3.37;;;2.67;;
14121;SDS011;7139;48.114;11.442;2022-08-01T05:19:42;3.20;;;2.90;;
14121;SDS011;7139;48.114;11.442;2022-08-01T05:22:10;3.13;;;2.80;;
14121;SDS011;7139;48.114;11.442;2022-08-01T05:24:38;3.90;;;2.83;;
14121;SDS011;7139;48.114;11.442;2022-08-01T05:27:07;3.17;;;2.60;;
14121;SDS011;7139;48.114;11.442;2022-08-01T05:29:34;3.13;;;2.70;;
14121;SDS011;7139;48.114;11.442;2022-08-01T05:32:02;3.50;;;3.20;;
14121;SDS011;7139;48.114;11.442;2022-08-01T05:34:29;4.43;;;2.83;;
14121;SDS011;7139;48.114;11.442;2022-08-01T05:36:56;2.97;;;2.60;;
14121;SDS011;7139;48.114;11.442;2022-08-01T05:39:24;3.90;;;3.10;;
14121;SDS011;7139;48.114;11.442;2022-08-01T05:41:50;4.03;;;2.70;;
14121;SDS011;7139;48.114;11.442;2022-08-01T05:44:17;3.10;;;2.80;;
14121;SDS011;7139;48.114;11.442;2022-08-01T05:46:44;3.70;;;3.10;;
14121;SDS011;7139;48.114;11.442;2022-08-01T05:49:11;3.10;;;2.67;;
14121;SDS011;7139;48.114;11.442;2022-08-01T05:51:38;2.70;;;2.50;;
14121;SDS011;7139;48.114;11.442;2022-08-01T05:54:05;3.33;;;3.00;;
14121;SDS011;7139;48.114;11.442;2022-08-01T05:56:33;3.07;;;2.57;;
14121;SDS011;7139;48.114;11.442;2022-08-01T05:59:00;3.17;;;2.83;;
14121;SDS011;7139;48.114;11.442;2022-08-01T06:01:27;3.67;;;3.03;;
14121;SDS011;7139;48.114;11.442;2022-08-01T06:03:54;2.97;;;2.60;;
14121;SDS011;7139;48.114;11.442;2022-08-01T06:06:21;3.80;;;2.80;;
14121;SDS011;7139;48.114;11.442;2022-08-01T06:08:48;4.70;;;3.17;;
14121;SDS011;7139;48.114;11.442;2022-08-01T06:11:15;4.47;;;3.10;;
14121;SDS011;7139;48.114;11.442;2022-08-01T06:13:43;3.30;;;2.80;;
14121;SDS011;7139;48.114;11.442;2022-08-01T06:16:10;2.70;;;2.50;;
14121;SDS011;7139;48.114;11.442;2022-08-01T06:18:36;4.90;;;2.90;;
14121;SDS011;7139;48.114;11.442;2022-08-01T06:21:03;3.13;;;2.80;;
14121;SDS011;7139;48.114;11.442;2022-08-01T06:23:31;3.37;;;3.07;;
14121;SDS011;7139;48.114;11.442;2022-08-01T06:25:58;3.23;;;3.03;;
14121;SDS011;7139;48.114;11.442;2022-08-01T06:28:25;3.17;;;2.87;;
14121;SDS011;7139;48.114;11.442;2022-08-01T06:30:53;4.43;;;2.83;;
14121;SDS011;7139;48.114;11.442;2022-08-01T06:33:20;3.30;;;2.70;;
14121;SDS011;7139;48.114;11.442;2022-08-01T06:35:47;2.83;;;2.63;;
14121;SDS011;7139;48.114;11.442;2022-08-01T06:38:14;3.53;;;3.20;;
14121;SDS011;7139;48.114;11.442;2022-08-01T06:40:40;3.40;;;3.10;;
14121;SDS011;7139;48.114;11.442;2022-08-01T06:43:07;3.97;;;2.73;;
14121;SDS011;7139;48.114;11.442;2022-08-01T06:45:36;3.00;;;2.80;;
14121;SDS011;7139;48.114;11.442;2022-08-01T06:48:04;3.30;;;2.87;;
14121;SDS011;7139;48.114;11.442;2022-08-01T06:50:32;3.77;;;3.40;;
14121;SDS011;7139;48.114;11.442;2022-08-01T06:53:00;4.03;;;3.30;;
14121;SDS011;7139;48.114;11.442;2022-08-01T06:55:27;3.27;;;3.03;;
14121;SDS011;7139;48.114;11.442;2022-08-01T06:57:54;3.67;;;3.00;;
14121;SDS011;7139;48.114;11.442;2022-08-01T07:00:21;3.37;;;3.07;;
14121;SDS011;7139;48.114;11.442;2022-08-01T07:02:49;3.23;;;2.80;;
14121;SDS011;7139;48.114;11.442;2022-08-01T07:05:18;3.40;;;3.10;;
14121;SDS011;7139;48.114;11.442;2022-08-01T07:07:45;4.27;;;2.90;;
14121;SDS011;7139;48.114;11.442;2022-08-01T07:10:12;3.50;;;3.20;;
14121;SDS011;7139;48.114;11.442;2022-08-01T07:12:38;3.33;;;3.03;;
14121;SDS011;7139;48.114;11.442;2022-08-01T07:15:06;3.50;;;3.20;;
14121;SDS011;7139;48.114;11.442;2022-08-01T07:17:36;3.07;;;2.87;;
14121;SDS011;7139;48.114;11.442;2022-08-01T07:20:04;3.50;;;3.20;;
14121;SDS011;7139;48.114;11.442;2022-08-01T07:22:33;3.50;;;3.20;;
14121;SDS011;7139;48.114;11.442;2022-08-01T07:25:00;3.55;;;3.25;;
14121;SDS011;7139;48.114;11.442;2022-08-01T07:27:26;3.53;;;3.15;;
14121;SDS011;7139;48.114;11.442;2022-08-01T07:29:53;3.30;;;3.00;;
14121;SDS011;7139;48.114;11.442;2022-08-01T07:32:20;3.47;;;3.17;;
14121;SDS011;7139;48.114;11.442;2022-08-01T07:34:47;3.53;;;3.15;;
14121;SDS011;7139;48.114;11.442;2022-08-01T07:37:13;3.60;;;3.30;;
14121;SDS011;7139;48.114;11.442;2022-08-01T07:39:42;4.75;;;3.30;;
14121;SDS011;7139;48.114;11.442;2022-08-01T07:42:08;3.50;;;3.20;;
14121;SDS011;7139;48.114;11.442;2022-08-01T07:44:35;3.47;;;3.17;;
14121;SDS011;7139;48.114;11.442;2022-08-01T07:47:03;4.43;;;3.20;;
14121;SDS011;7139;48.114;11.442;2022-08-01T07:49:30;4.10;;;3.35;;
14121;SDS011;7139;48.114;11.442;2022-08-01T07:51:57;3.75;;;3.50;;
14121;SDS011;7139;48.114;11.442;2022-08-01T07:54:24;3.50;;;3.20;;
14121;SDS011;7139;48.114;11.442;2022-08-01T07:56:54;5.00;;;3.08;;
14121;SDS011;7139;48.114;11.442;2022-08-01T07:59:21;3.88;;;3.40;;
14121;SDS011;7139;48.114;11.442;2022-08-01T08:01:48;3.53;;;3.22;;
14121;SDS011;7139;48.114;11.442;2022-08-01T08:04:16;3.72;;;3.42;;
14121;SDS011;7139;48.114;11.442;2022-08-01T08:06:42;3.13;;;2.92;;
14121;SDS011;7139;48.114;11.442;2022-08-01T08:09:09;3.40;;;3.10;;
14121;SDS011;7139;48.114;11.442;2022-08-01T08:11:37;3.55;;;3.00;;
14121;SDS011;7139;48.114;11.442;2022-08-01T08:14:05;3.30;;;3.00;;
14121;SDS011;7139;48.114;11.442;2022-08-01T08:16:31;4.65;;;3.30;;
14121;SDS011;7139;48.114;11.442;2022-08-01T08:18:58;3.50;;;3.20;;
14121;SDS011;7139;48.114;11.442;2022-08-01T08:21:25;4.10;;;3.20;;
14121;SDS011;7139;48.114;11.442;2022-08-01T08:23:52;3.60;;;3.30;;
14121;SDS011;7139;48.114;11.442;2022-08-01T08:26:36;3.97;;;3.33;;
14121;SDS011;7139;48.114;11.442;2022-08-01T08:29:05;4.07;;;3.20;;
14121;SDS011;7139;48.114;11.442;2022-08-01T08:31:31;3.63;;;3.03;;
14121;SDS011;7139;48.114;11.442;2022-08-01T08:33:58;3.97;;;3.40;;
14121;SDS011;7139;48.114;11.442;2022-08-01T08:36:25;3.80;;;3.50;;
14121;SDS011;7139;48.114;11.442;2022-08-01T08:38:52;3.50;;;3.17;;
14121;SDS011;7139;48.114;11.442;2022-08-01T08:41:20;3.75;;;3.45;;
14121;SDS011;7139;48.114;11.442;2022-08-01T08:43:47;3.70;;;3.40;;
14121;SDS011;7139;48.114;11.442;2022-08-01T08:46:15;3.53;;;3.22;;
14121;SDS011;7139;48.114;11.442;2022-08-01T08:48:42;3.33;;;3.05;;
14121;SDS011;7139;48.114;11.442;2022-08-01T08:51:10;4.30;;;3.10;;
14121;SDS011;7139;48.114;11.442;2022-08-01T08:53:37;3.40;;;3.10;;
14121;SDS011;7139;48.114;11.442;2022-08-01T08:56:08;3.33;;;3.03;;
14121;SDS011;7139;48.114;11.442;2022-08-01T08:58:37;3.90;;;3.05;;
14121;SDS011;7139;48.114;11.442;2022-08-01T09:01:05;3.08;;;2.78;;
14121;SDS011;7139;48.114;11.442;2022-08-01T09:03:34;3.40;;;3.10;;
14121;SDS011;7139;48.114;11.442;2022-08-01T09:06:01;3.22;;;2.97;;
14121;SDS011;7139;48.114;11.442;2022-08-01T09:08:28;4.68;;;3.10;;
14121;SDS011;7139;48.114;11.442;2022-08-01T09:10:55;4.25;;;2.90;;
14121;SDS011;7139;48.114;11.442;2022-08-01T09:13:22;3.10;;;2.83;;
14121;SDS011;7139;48.114;11.442;2022-08-01T09:15:49;2.80;;;2.60;;
14121;SDS011;7139;48.114;11.442;2022-08-01T09:18:31;2.70;;;2.42;;
14121;SDS011;7139;48.114;11.442;2022-08-01T09:21:09;3.78;;;2.45;;
14121;SDS011;7139;48.114;11.442;2022-08-01T09:23:38;2.47;;;2.28;;
14121;SDS011;7139;48.114;11.442;2022-08-01T09:26:07;2.90;;;2.70;;
14121;SDS011;7139;48.114;11.442;2022-08-01T09:28:35;3.75;;;2.50;;
14121;SDS011;7139;48.114;11.442;2022-08-01T09:31:05;4.05;;;2.50;;
14121;SDS011;7139;48.114;11.442;2022-08-01T09:33:49;2.50;;;2.30;;
14121;SDS011;7139;48.114;11.442;2022-08-01T09:36:19;2.38;;;2.17;;
14121;SDS011;7139;48.114;11.442;2022-08-01T09:38:47;2.42;;;2.22;;
14121;SDS011;7139;48.114;11.442;2022-08-01T09:41:15;2.40;;;2.20;;
14121;SDS011;7139;48.114;11.442;2022-08-01T09:43:47;4.10;;;2.33;;
14121;SDS011;7139;48.114;11.442;2022-08-01T09:46:15;2.25;;;2.05;;
14121;SDS011;7139;48.114;11.442;2022-08-01T09:48:54;2.25;;;1.90;;
14121;SDS011;7139;48.114;11.442;2022-08-01T09:51:30;2.80;;;2.40;;
14121;SDS011;7139;48.114;11.442;2022-08-01T09:53:59;2.40;;;2.20;;
14121;SDS011;7139;48.114;11.442;2022-08-01T09:56:26;3.50;;;2.20;;
14121;SDS011;7139;48.114;11.442;2022-08-01T09:59:02;2.78;;;2.22;;
14121;SDS011;7139;48.114;11.442;2022-08-01T10:01:41;2.80;;;2.60;;
14121;SDS011;7139;48.114;11.442;2022-08-01T10:04:11;4.03;;;2.33;;
14121;SDS011;7139;48.114;11.442;2022-08-01T10:06:41;4.38;;;2.70;;
14121;SDS011;7139;48.114;11.442;2022-08-01T10:09:09;3.03;;;2.28;;
14121;SDS011;7139;48.114;11.442;2022-08-01T10:11:37;2.90;;;2.55;;
14121;SDS011;7139;48.114;11.442;2022-08-01T10:14:05;3.00;;;2.05;;
14121;SDS011;7139;48.114;11.442;2022-08-01T10:16:33;2.85;;;2.05;;
14121;SDS011;7139;48.114;11.442;2022-08-01T10:19:01;2.28;;;2.08;;
14121;SDS011;7139;48.114;11.442;2022-08-01T10:21:29;2.20;;;2.10;;
14121;SDS011;7139;48.114;11.442;2022-08-01T10:24:00;2.42;;;2.10;;
14121;SDS011;7139;48.114;11.442;2022-08-01T10:26:29;2.28;;;2.00;;
14121;SDS011;7139;48.114;11.442;2022-08-01T10:28:59;2.20;;;2.00;;
14121;SDS011;7139;48.114;11.442;2022-08-01T10:31:27;2.05;;;1.85;;
14121;SDS011;7139;48.114;11.442;2022-08-01T10:33:57;2.90;;;2.30;;
14121;SDS011;7139;48.114;11.442;2022-08-01T10:36:25;2.58;;;2.25;;
14121;SDS011;7139;48.114;11.442;2022-08-01T10:38:52;2.45;;;2.25;;
14121;SDS011;7139;48.114;11.442;2022-08-01T10:41:21;2.33;;;2.00;;
14121;SDS011;7139;48.114;11.442;2022-08-01T10:43:50;2.42;;;2.20;;
14121;SDS011;7139;48.114;11.442;2022-08-01T10:46:18;2.30;;;2.10;;
14121;SDS011;7139;48.114;11.442;2022-08-01T10:48:47;2.33;;;2.20;;
14121;SDS011;7139;48.114;11.442;2022-08-01T10:51:19;2.75;;;2.00;;
14121;SDS011;7139;48.114;11.442;2022-08-01T10:53:46;2.38;;;2.10;;
14121;SDS011;7139;48.114;11.442;2022-08-01T10:56:15;2.40;;;2.08;;
14121;SDS011;7139;48.114;11.442;2022-08-01T10:58:46;2.30;;;2.10;;
14121;SDS011;7139;48.114;11.442;2022-08-01T11:01:18;1.95;;;1.85;;
14121;SDS011;7139;48.114;11.442;2022-08-01T11:04:02;2.47;;;2.25;;
14121;SDS011;7139;48.114;11.442;2022-08-01T11:06:42;2.50;;;2.30;;
14121;SDS011;7139;48.114;11.442;2022-08-01T11:09:21;3.15;;;2.20;;
14121;SDS011;7139;48.114;11.442;2022-08-01T11:11:57;2.85;;;2.20;;
14121;SDS011;7139;48.114;11.442;2022-08-01T11:14:31;2.63;;;2.40;;
14121;SDS011;7139;48.114;11.442;2022-08-01T11:20:03;2.38;;;2.15;;
14121;SDS011;7139;48.114;11.442;2022-08-01T11:26:07;2.63;;;2.42;;
14121;SDS011;7139;48.114;11.442;2022-08-01T11:28:35;2.33;;;2.10;;
14121;SDS011;7139;48.114;11.442;2022-08-01T11:34:06;2.05;;;1.92;;
14121;SDS011;7139;48.114;11.442;2022-08-01T11:36:33;2.30;;;2.10;;
14121;SDS011;7139;48.114;11.442;2022-08-01T11:39:16;3.65;;;2.50;;
14121;SDS011;7139;48.114;11.442;2022-08-01T11:41:44;2.30;;;2.00;;
14121;SDS011;7139;48.114;11.442;2022-08-01T11:44:14;3.35;;;2.30;;
14121;SDS011;7139;48.114;11.442;2022-08-01T11:46:54;2.20;;;2.00;;
14121;SDS011;7139;48.114;11.442;2022-08-01T11:49:30;1.95;;;1.77;;
14121;SDS011;7139;48.114;11.442;2022-08-01T11:52:23;2.97;;;1.77;;
14121;SDS011;7139;48.114;11.442;2022-08-01T11:54:51;2.10;;;1.90;;
14121;SDS011;7139;48.114;11.442;2022-08-01T11:57:20;2.13;;;1.80;;
14121;SDS011;7139;48.114;11.442;2022-08-01T11:59:48;1.98;;;1.80;;
14121;SDS011;7139;48.114;11.442;2022-08-01T12:02:18;2.20;;;1.88;;
14121;SDS011;7139;48.114;11.442;2022-08-01T12:04:48;2.30;;;2.10;;
14121;SDS011;7139;48.114;11.442;2022-08-01T12:07:18;2.75;;;1.80;;
14121;SDS011;7139;48.114;11.442;2022-08-01T12:09:48;1.60;;;1.50;;
14121;SDS011;7139;48.114;11.442;2022-08-01T12:12:22;2.78;;;1.77;;
14121;SDS011;7139;48.114;11.442;2022-08-01T12:14:52;1.92;;;1.52;;
14121;SDS011;7139;48.114;11.442;2022-08-01T12:17:26;2.33;;;1.85;;
14121;SDS011;7139;48.114;11.442;2022-08-01T12:20:02;2.50;;;1.60;;
14121;SDS011;7139;48.114;11.442;2022-08-01T12:22:31;2.13;;;1.80;;
14121;SDS011;7139;48.114;11.442;2022-08-01T12:25:04;1.70;;;1.60;;
14121;SDS011;7139;48.114;11.442;2022-08-01T12:27:32;3.78;;;1.65;;
14121;SDS011;7139;48.114;11.442;2022-08-01T12:29:59;2.00;;;1.80;;
14121;SDS011;7139;48.114;11.442;2022-08-01T12:32:27;2.00;;;1.80;;
14121;SDS011;7139;48.114;11.442;2022-08-01T12:34:56;2.85;;;1.60;;
14121;SDS011;7139;48.114;11.442;2022-08-01T12:37:28;1.73;;;1.63;;
14121;SDS011;7139;48.114;11.442;2022-08-01T12:39:55;1.67;;;1.58;;
14121;SDS011;7139;48.114;11.442;2022-08-01T12:42:24;1.80;;;1.70;;
14121;SDS011;7139;48.114;11.442;2022-08-01T12:44:51;2.42;;;1.60;;
14121;SDS011;7139;48.114;11.442;2022-08-01T12:47:19;2.72;;;1.73;;
14121;SDS011;7139;48.114;11.442;2022-08-01T12:49:47;1.70;;;1.58;;
14121;SDS011;7139;48.114;11.442;2022-08-01T12:52:14;2.10;;;1.60;;
14121;SDS011;7139;48.114;11.442;2022-08-01T12:55:04;2.35;;;1.63;;
14121;SDS011;7139;48.114;11.442;2022-08-01T12:57:35;2.38;;;1.70;;
14121;SDS011;7139;48.114;11.442;2022-08-01T13:00:05;2.72;;;1.70;;
14121;SDS011;7139;48.114;11.442;2022-08-01T13:02:40;1.50;;;1.40;;
14121;SDS011;7139;48.114;11.442;2022-08-01T13:05:08;1.98;;;1.77;;
14121;SDS011;7139;48.114;11.442;2022-08-01T13:07:40;3.50;;;1.67;;
14121;SDS011;7139;48.114;11.442;2022-08-01T13:10:13;1.83;;;1.70;;
14121;SDS011;7139;48.114;11.442;2022-08-01T13:12:50;2.55;;;1.83;;
14121;SDS011;7139;48.114;11.442;2022-08-01T13:15:22;1.90;;;1.63;;
14121;SDS011;7139;48.114;11.442;2022-08-01T13:17:51;2.10;;;1.58;;
14121;SDS011;7139;48.114;11.442;2022-08-01T13:20:25;3.47;;;1.80;;
14121;SDS011;7139;48.114;11.442;2022-08-01T13:22:54;2.13;;;1.85;;
14121;SDS011;7139;48.114;11.442;2022-08-01T13:25:23;3.20;;;1.95;;
14121;SDS011;7139;48.114;11.442;2022-08-01T13:27:49;1.80;;;1.70;;
14121;SDS011;7139;48.114;11.442;2022-08-01T13:30:50;2.28;;;1.60;;
14121;SDS011;7139;48.114;11.442;2022-08-01T13:33:18;2.78;;;1.98;;
14121;SDS011;7139;48.114;11.442;2022-08-01T13:35:45;2.38;;;1.90;;
14121;SDS011;7139;48.114;11.442;2022-08-01T13:38:12;2.35;;;1.80;;
14121;SDS011;7139;48.114;11.442;2022-08-01T13:40:40;3.60;;;1.92;;
14121;SDS011;7139;48.114;11.442;2022-08-01T13:43:07;9.95;;;9.05;;
14121;SDS011;7139;48.114;11.442;2022-08-01T13:45:34;10.05;;;9.07;;
14121;SDS011;7139;48.114;11.442;2022-08-01T13:48:01;2.47;;;2.05;;
14121;SDS011;7139;48.114;11.442;2022-08-01T13:50:28;2.00;;;1.48;;
14121;SDS011;7139;48.114;11.442;2022-08-01T13:52:55;2.25;;;1.90;;
14121;SDS011;7139;48.114;11.442;2022-08-01T13:55:22;3.15;;;1.92;;
14121;SDS011;7139;48.114;11.442;2022-08-01T13:57:50;2.65;;;1.83;;
14121;SDS011;7139;48.114;11.442;2022-08-01T14:00:17;2.40;;;1.70;;
14121;SDS011;7139;48.114;11.442;2022-08-01T14:02:43;4.30;;;1.77;;
14121;SDS011;7139;48.114;11.442;2022-08-01T14:05:10;2.05;;;1.92;;
14121;SDS011;7139;48.114;11.442;2022-08-01T14:07:37;2.17;;;1.95;;
14121;SDS011;7139;48.114;11.442;2022-08-01T14:10:04;3.67;;;2.00;;
14121;SDS011;7139;48.114;11.442;2022-08-01T14:12:31;2.53;;;1.80;;
14121;SDS011;7139;48.114;11.442;2022-08-01T14:14:59;3.03;;;2.05;;
14121;SDS011;7139;48.114;11.442;2022-08-01T14:17:26;1.60;;;1.50;;
14121;SDS011;7139;48.114;11.442;2022-08-01T14:19:53;2.00;;;1.80;;
14121;SDS011;7139;48.114;11.442;2022-08-01T14:22:21;2.10;;;1.90;;
14121;SDS011;7139;48.114;11.442;2022-08-01T14:24:48;2.75;;;2.17;;
14121;SDS011;7139;48.114;11.442;2022-08-01T14:27:15;2.85;;;1.95;;
14121;SDS011;7139;48.114;11.442;2022-08-01T14:29:41;2.33;;;2.13;;
14121;SDS011;7139;48.114;11.442;2022-08-01T14:32:09;2.17;;;1.98;;
14121;SDS011;7139;48.114;11.442;2022-08-01T14:34:36;2.05;;;1.85;;
14121;SDS011;7139;48.114;11.442;2022-08-01T14:37:03;3.40;;;2.22;;
14121;SDS011;7139;48.114;11.442;2022-08-01T14:39:29;2.75;;;1.85;;
14121;SDS011;7139;48.114;11.442;2022-08-01T14:41:56;2.80;;;2.05;;
14121;SDS011;7139;48.114;11.442;2022-08-01T14:44:23;2.75;;;2.40;;
14121;SDS011;7139;48.114;11.442;2022-08-01T14:46:49;3.08;;;2.03;;
14121;SDS011;7139;48.114;11.442;2022-08-01T14:49:18;4.80;;;4.07;;
14121;SDS011;7139;48.114;11.442;2022-08-01T14:51:44;2.35;;;2.13;;
14121;SDS011;7139;48.114;11.442;2022-08-01T14:54:11;2.67;;;2.30;;
14121;SDS011;7139;48.114;11.442;2022-08-01T14:56:38;2.78;;;2.10;;
14121;SDS011;7139;48.114;11.442;2022-08-01T14:59:05;4.28;;;1.80;;
14121;SDS011;7139;48.114;11.442;2022-08-01T15:01:31;2.55;;;1.90;;
14121;SDS011;7139;48.114;11.442;2022-08-01T15:03:58;3.45;;;2.22;;
14121;SDS011;7139;48.114;11.442;2022-08-01T15:06:26;2.30;;;1.75;;
14121;SDS011;7139;48.114;11.442;2022-08-01T15:08:53;2.53;;;2.05;;